Time;durP1;ratioP1;P1;durP2;ratioP2;P2;SDS_P1;SDS_P2;PMS_P1;PMS_P2;Temp;Humidity;BMP_temperature;BMP_pressure;BME280_temperature;BME280_humidity;BME280_pressure;Samples;Min_cycle;Max_cycle;Signal;HPM_P1;HPM_P2
2023/09/06 00:02:06;;;;;;;3.42;3.13;;;;;;;18.41;100.00;101688.38;4990110;28;20036;-64
2023/09/06 00:04:32;;;;;;;3.38;3.00;;;;;;;18.37;100.00;101686.56;4990118;28;20018;-63
2023/09/06 00:06:57;;;;;;;3.60;3.08;;;;;;;18.34;100.00;101686.53;4989507;28;20493;-64
2023/09/06 00:09:23;;;;;;;5.07;3.03;;;;;;;18.32;100.00;101677.75;4989960;28;20025;-64
2023/09/06 00:11:48;;;;;;;4.57;2.80;;;;;;;18.33;100.00;101679.53;4989918;28;20103;-64
2023/09/06 00:14:15;;;;;;;3.13;2.53;;;;;;;18.32;100.00;101683.00;4991030;28;20046;-63
2023/09/06 00:16:40;;;;;;;3.00;2.47;;;;;;;18.32;100.00;101688.25;4989343;28;20029;-64
2023/09/06 00:19:06;;;;;;;3.83;2.90;;;;;;;18.31;100.00;101678.63;4972488;28;20038;-64
2023/09/06 00:21:35;;;;;;;3.05;2.78;;;;;;;18.29;100.00;101672.47;4990114;28;20053;-62
2023/09/06 00:24:00;;;;;;;4.10;2.75;;;;;;;18.29;100.00;101667.22;4988959;28;20381;-64
2023/09/06 00:26:26;;;;;;;3.63;2.30;;;;;;;18.28;100.00;101665.44;4990179;28;20029;-64
2023/09/06 00:28:51;;;;;;;4.70;3.20;;;;;;;18.24;100.00;101665.41;4989388;28;20058;-64
2023/09/06 00:31:17;;;;;;;5.10;3.20;;;;;;;18.21;100.00;101670.63;4980287;28;20030;-62
2023/09/06 00:33:44;;;;;;;3.30;2.50;;;;;;;18.21;100.00;101664.47;4984592;28;20038;-63
2023/09/06 00:36:09;;;;;;;3.63;2.58;;;;;;;18.21;100.00;101664.47;4989547;28;20077;-62
2023/09/06 00:38:35;;;;;;;4.47;2.75;;;;;;;18.21;100.00;101664.47;4989344;28;20026;-64
2023/09/06 00:41:00;;;;;;;3.63;2.75;;;;;;;18.20;100.00;101666.25;4989171;28;20024;-63
2023/09/06 00:43:25;;;;;;;3.58;2.90;;;;;;;18.20;100.00;101667.97;4989050;28;20060;-64
2023/09/06 00:45:51;;;;;;;5.05;3.58;;;;;;;18.20;100.00;101661.00;4989390;28;20466;-64
2023/09/06 00:48:19;;;;;;;4.15;3.28;;;;;;;18.19;100.00;101667.09;4988528;28;20085;-62
2023/09/06 00:50:50;;;;;;;5.28;3.42;;;;;;;18.19;100.00;101676.69;4988929;28;20101;-64
2023/09/06 00:53:16;;;;;;;;;;;;;;;18.17;100.00;101668.81;4989515;28;20430;-63
2023/09/06 00:55:41;;;;;;;3.40;2.97;;;;;;;18.18;100.00;101681.06;4988743;28;19957;-64
2023/09/06 00:58:08;;;;;;;4.28;3.20;;;;;;;18.15;100.00;101673.16;4988988;28;20487;-64
2023/09/06 01:00:35;;;;;;;7.25;2.92;;;;;;;18.14;100.00;101679.25;4988778;28;20113;-63
2023/09/06 01:03:00;;;;;;;4.82;3.00;;;;;;;18.13;100.00;101677.47;4988144;28;20026;-63
2023/09/06 01:05:31;;;;;;;3.78;2.90;;;;;;;18.11;100.00;101687.06;4988866;28;20579;-64
2023/09/06 01:08:03;;;;;;;4.97;3.25;;;;;;;18.10;100.00;101683.56;4988209;28;20053;-64
2023/09/06 01:10:28;;;;;;;3.70;3.05;;;;;;;18.09;100.00;101681.81;4988490;28;20030;-64
2023/09/06 01:12:56;;;;;;;3.35;2.92;;;;;;;18.07;100.00;101688.75;4988688;28;20022;-63
2023/09/06 01:15:22;;;;;;;3.00;2.70;;;;;;;18.04;100.00;101688.72;4988435;28;20036;-64
2023/09/06 01:17:49;;;;;;;3.60;2.55;;;;;;;18.00;100.00;101682.56;4988448;28;20023;-64
2023/09/06 01:20:51;;;;;;;4.32;3.10;;;;;;;17.97;100.00;101687.72;4988600;28;20066;-64
2023/09/06 01:23:33;;;;;;;2.97;2.55;;;;;;;17.95;100.00;101694.69;4984702;28;20042;-64
2023/09/06 01:25:58;;;;;;;3.30;3.00;;;;;;;17.90;100.00;101690.25;4988880;28;20592;-63
2023/09/06 01:28:27;;;;;;;3.42;2.65;;;;;;;17.85;100.00;101692.78;4988493;28;20138;-64
2023/09/06 01:30:56;;;;;;;3.95;2.53;;;;;;;17.79;100.00;101687.47;4982610;28;20027;-64
2023/09/06 01:33:24;;;;;;;6.47;3.20;;;;;;;17.75;100.00;101681.31;4981890;28;20038;-63
2023/09/06 01:35:50;;;;;;;6.40;3.03;;;;;;;17.71;100.00;101696.09;4988663;28;20041;-63
2023/09/06 01:38:16;;;;;;;3.72;2.90;;;;;;;17.66;100.00;101687.28;4988363;28;20034;-64
2023/09/06 01:40:44;;;;;;;3.75;2.63;;;;;;;17.61;100.00;101695.06;4986965;28;20025;-63
2023/09/06 01:43:10;;;;;;;5.13;3.20;;;;;;;17.56;100.00;101695.84;4987819;28;20036;-64
2023/09/06 01:45:38;;;;;;;3.05;2.85;;;;;;;17.49;100.00;101700.97;4988081;28;20026;-64
2023/09/06 01:48:03;;;;;;;3.92;2.97;;;;;;;17.44;100.00;101697.41;4988185;28;20058;-64
2023/09/06 01:50:28;;;;;;;3.53;3.15;;;;;;;17.40;100.00;101700.81;4970844;28;20328;-64
2023/09/06 01:52:55;;;;;;;4.38;2.70;;;;;;;17.37;100.00;101698.16;4987419;28;20072;-63
2023/09/06 01:55:24;;;;;;;4.07;3.17;;;;;;;17.32;100.00;101692.84;4988018;28;20466;-64
2023/09/06 01:57:49;;;;;;;4.25;3.83;;;;;;;17.31;100.00;101685.81;4988222;28;20036;-64
2023/09/06 02:00:26;;;;;;;5.63;3.88;;;;;;;17.31;100.00;101696.31;4988048;28;20409;-63
2023/09/06 02:02:52;;;;;;;4.32;3.28;;;;;;;17.30;100.00;101693.66;4988401;28;20049;-64
2023/09/06 02:05:17;;;;;;;6.38;3.03;;;;;;;17.30;100.00;101693.66;4988069;28;20029;-63
2023/09/06 02:07:44;;;;;;;4.45;3.00;;;;;;;17.30;100.00;101688.41;4987614;28;20023;-63
2023/09/06 02:10:10;;;;;;;4.35;3.20;;;;;;;17.30;100.00;101689.31;4988775;28;20374;-63
2023/09/06 02:12:36;;;;;;;5.00;3.47;;;;;;;17.30;100.00;101689.31;4988094;28;20029;-64
2023/09/06 02:15:04;;;;;;;6.20;3.60;;;;;;;17.29;100.00;101695.38;4988581;28;20053;-64
2023/09/06 02:17:29;;;;;;;4.43;3.25;;;;;;;17.30;100.00;101698.91;4987864;28;20390;-64
2023/09/06 02:19:54;;;;;;;5.15;3.97;;;;;;;17.27;100.00;101697.09;4987819;28;20042;-62
2023/09/06 02:22:20;;;;;;;7.88;4.45;;;;;;;17.24;100.00;101708.41;4987709;28;20062;-63
2023/09/06 02:24:45;;;;;;;6.88;4.13;;;;;;;17.21;100.00;101697.91;4988097;28;20019;-64
2023/09/06 02:27:12;;;;;;;5.43;4.63;;;;;;;17.23;100.00;101698.81;4970294;28;20042;-64
2023/09/06 02:29:40;;;;;;;4.10;3.67;;;;;;;17.22;100.00;101697.03;4987510;28;20268;-62
2023/09/06 02:32:05;;;;;;;4.45;4.05;;;;;;;17.23;100.00;101703.16;4974425;28;20050;-64
2023/09/06 02:34:31;;;;;;;5.07;4.57;;;;;;;17.23;100.00;101695.28;4988231;28;20047;-64
2023/09/06 02:36:56;;;;;;;4.97;4.43;;;;;;;17.22;100.00;101701.38;4986458;28;20023;-63
2023/09/06 02:39:22;;;;;;;6.60;4.65;;;;;;;17.22;100.00;101696.13;4987777;28;20026;-64
2023/09/06 02:41:47;;;;;;;6.50;4.63;;;;;;;17.20;100.00;101696.09;4987895;28;20080;-64
2023/09/06 02:44:12;;;;;;;5.70;4.47;;;;;;;17.20;100.00;101698.72;4988378;28;20026;-64
2023/09/06 02:46:38;;;;;;;5.20;4.55;;;;;;;17.19;100.00;101696.97;4987740;28;20198;-62
2023/09/06 02:49:11;;;;;;;6.22;4.43;;;;;;;17.18;100.00;101697.81;4987859;28;20363;-64
2023/09/06 02:51:42;;;;;;;4.60;4.07;;;;;;;17.14;100.00;101702.09;4987257;28;20061;-62
2023/09/06 02:54:10;;;;;;;4.60;4.15;;;;;;;17.12;100.00;101700.34;4987692;28;20030;-64
2023/09/06 02:56:38;;;;;;;5.18;4.65;;;;;;;17.07;100.00;101701.97;4989045;28;20466;-64
2023/09/06 02:59:07;;;;;;;4.85;4.38;;;;;;;17.01;100.00;101701.00;4991354;28;20036;-64
2023/09/06 03:01:35;;;;;;;5.88;4.68;;;;;;;16.96;100.00;101700.03;4991182;28;20054;-64
2023/09/06 03:04:02;;;;;;;6.10;4.90;;;;;;;16.92;100.00;101704.31;4991026;28;20712;-63
2023/09/06 03:06:33;;;;;;;5.22;4.72;;;;;;;16.89;100.00;101708.59;4990961;28;20022;-63
2023/09/06 03:08:59;;;;;;;5.00;4.50;;;;;;;16.83;100.00;101704.13;4990932;28;20030;-62
2023/09/06 03:11:25;;;;;;;5.22;4.65;;;;;;;16.78;100.00;101706.63;4990880;28;20026;-63
2023/09/06 03:13:55;;;;;;;5.45;4.60;;;;;;;16.72;100.00;101701.31;4991101;28;20050;-62
2023/09/06 03:16:22;;;;;;;5.68;4.53;;;;;;;16.66;100.00;101715.13;4978067;28;20030;-64
2023/09/06 03:18:49;;;;;;;6.35;4.60;;;;;;;16.61;100.00;101708.94;4991037;28;20032;-62
2023/09/06 03:21:16;;;;;;;5.15;4.65;;;;;;;16.55;100.00;101707.06;4991348;28;20034;-63
2023/09/06 03:23:44;;;;;;;5.65;4.60;;;;;;;16.50;100.00;101702.56;4990639;28;20426;-63
2023/09/06 03:26:10;;;;;;;6.97;4.75;;;;;;;16.44;100.00;101701.59;4990439;28;20507;-64
2023/09/06 03:28:40;;;;;;;5.32;4.82;;;;;;;16.42;100.00;101707.66;4990576;28;20051;-64
2023/09/06 03:31:09;;;;;;;5.03;4.60;;;;;;;16.39;100.00;101702.34;4982886;28;20086;-63
2023/09/06 03:33:39;;;;;;;6.20;5.00;;;;;;;16.39;100.00;101704.97;4985818;28;20054;-64
2023/09/06 03:36:09;;;;;;;5.72;5.22;;;;;;;16.37;100.00;101709.31;4990786;28;20098;-64
2023/09/06 03:38:36;;;;;;;5.03;4.53;;;;;;;16.36;100.00;101717.97;4990186;28;20061;-64
2023/09/06 03:41:02;;;;;;;6.45;4.45;;;;;;;16.33;100.00;101719.66;4990126;28;20058;-62
2023/09/06 03:43:32;;;;;;;7.68;5.05;;;;;;;16.29;100.00;101723.09;4990626;28;20026;-63
2023/09/06 03:46:04;;;;;;;5.32;4.78;;;;;;;16.26;100.00;101722.13;4990318;28;20049;-63
2023/09/06 03:48:30;;;;;;;8.13;5.22;;;;;;;16.18;100.00;101719.34;4990368;28;20482;-63
2023/09/06 03:50:57;;;;;;;5.20;4.78;;;;;;;16.12;100.00;101714.00;4989792;28;20028;-64
2023/09/06 03:53:26;;;;;;;5.22;4.43;;;;;;;16.07;100.00;101703.41;4990179;28;20090;-64
2023/09/06 03:55:52;;;;;;;7.30;5.65;;;;;;;16.01;100.00;101711.97;4990350;28;20113;-63
2023/09/06 03:58:18;;;;;;;5.22;4.68;;;;;;;15.98;100.00;101714.50;4989862;28;20029;-64
2023/09/06 04:00:44;;;;;;;5.97;4.88;;;;;;;15.94;100.00;101718.78;4972197;28;20026;-64
2023/09/06 04:03:14;;;;;;;5.68;5.03;;;;;;;15.91;100.00;101716.09;4990231;28;20034;-63
2023/09/06 04:05:40;;;;;;;7.47;4.88;;;;;;;15.90;100.00;101718.66;4989939;28;20030;-63
2023/09/06 04:08:09;;;;;;;6.40;5.18;;;;;;;15.89;100.00;101724.72;4989909;28;20033;-63
2023/09/06 04:10:40;;;;;;;5.40;4.90;;;;;;;15.84;100.00;101715.06;4990188;28;20038;-63
2023/09/06 04:13:07;;;;;;;5.57;4.50;;;;;;;15.83;100.00;101721.13;4977285;28;20026;-64
2023/09/06 04:15:35;;;;;;;6.13;5.53;;;;;;;15.79;100.00;101719.31;4990050;28;20394;-64
2023/09/06 04:18:03;;;;;;;5.55;4.97;;;;;;;15.76;100.00;101727.03;4989765;28;20126;-62
2023/09/06 04:20:31;;;;;;;6.93;5.25;;;;;;;15.72;100.00;101730.44;4989603;28;20030;-64
2023/09/06 04:23:00;;;;;;;5.70;5.20;;;;;;;15.69;100.00;101730.34;4989616;28;20077;-62
2023/09/06 04:25:26;;;;;;;5.53;5.03;;;;;;;15.65;100.00;101729.38;4990370;28;20270;-64
2023/09/06 04:27:56;;;;;;;6.10;5.20;;;;;;;15.64;100.00;101729.34;4989915;28;20096;-64
2023/09/06 04:30:30;;;;;;;6.87;6.13;;;;;;;15.60;100.00;101737.13;4987487;28;20034;-63
2023/09/06 04:32:58;;;;;;;7.20;4.97;;;;;;;15.57;100.00;101736.16;4979569;28;20032;-64
2023/09/06 04:35:33;;;;;;;5.47;4.97;;;;;;;15.54;100.00;101736.94;4989740;28;20081;-64
2023/09/06 04:37:58;;;;;;;7.55;5.40;;;;;;;15.51;100.00;101736.03;4989327;28;20030;-63
2023/09/06 04:40:23;;;;;;;5.82;5.22;;;;;;;15.48;100.00;101742.03;4989625;28;20352;-63
2023/09/06 04:42:49;;;;;;;5.65;5.13;;;;;;;15.45;100.00;101735.00;4989913;28;20367;-63
2023/09/06 04:45:14;;;;;;;5.50;5.00;;;;;;;15.44;100.00;101740.16;4988391;28;20024;-63
2023/09/06 04:47:39;;;;;;;5.88;5.28;;;;;;;15.43;100.00;101743.63;4986967;28;20103;-62
2023/09/06 04:50:06;;;;;;;6.38;5.72;;;;;;;15.43;100.00;101741.94;4988560;28;20023;-64
2023/09/06 04:52:44;;;;;;;6.47;5.80;;;;;;;15.39;100.00;101739.16;4987549;28;20026;-64
2023/09/06 04:55:12;;;;;;;9.00;5.93;;;;;;;15.36;100.00;101740.84;4986891;28;20034;-62
2023/09/06 04:57:38;;;;;;;6.10;5.50;;;;;;;15.36;100.00;101743.47;4987172;28;20026;-64
2023/09/06 05:00:24;;;;;;;6.25;5.72;;;;;;;15.36;100.00;101753.91;4970890;28;20542;-62
2023/09/06 05:02:54;;;;;;;6.82;5.53;;;;;;;15.38;100.00;101750.47;4983315;28;20026;-63
2023/09/06 05:05:21;;;;;;;6.47;5.80;;;;;;;15.38;100.00;101750.47;4988879;28;20034;-63
2023/09/06 05:07:46;;;;;;;5.90;5.40;;;;;;;15.38;100.00;101755.69;4989329;28;20022;-63
2023/09/06 05:10:11;;;;;;;6.53;5.93;;;;;;;15.38;100.00;101758.31;4988967;28;20497;-63
2023/09/06 05:12:37;;;;;;;6.57;5.97;;;;;;;15.36;100.00;101753.03;4988267;28;20030;-62
2023/09/06 05:15:07;;;;;;;9.55;7.00;;;;;;;15.35;100.00;101757.38;4988534;28;20117;-63
2023/09/06 05:17:33;;;;;;;7.82;6.55;;;;;;;15.35;100.00;101757.38;4988758;28;20026;-63
2023/09/06 05:20:33;;;;;;;9.48;6.10;;;;;;;15.37;100.00;101762.63;4987999;28;20026;-63
2023/09/06 05:23:01;;;;;;;10.90;6.07;;;;;;;15.36;100.00;101759.13;4983699;28;20030;-63
2023/09/06 05:25:26;;;;;;;7.95;6.78;;;;;;;15.40;100.00;101764.47;4988163;28;20058;-62
2023/09/06 05:27:54;;;;;;;7.22;6.53;;;;;;;15.41;100.00;101761.00;4988692;28;20042;-63
2023/09/06 05:30:19;;;;;;;8.02;7.20;;;;;;;15.42;100.00;101767.97;4986993;28;20524;-61
2023/09/06 05:32:44;;;;;;;7.93;7.13;;;;;;;15.42;100.00;101766.25;4977002;28;20022;-64
2023/09/06 05:35:10;;;;;;;7.43;6.70;;;;;;;15.45;100.00;101768.94;4989114;28;20018;-64
2023/09/06 05:37:37;;;;;;;8.52;7.35;;;;;;;15.47;100.00;101771.63;4988267;28;20493;-64
2023/09/06 05:40:05;;;;;;;7.60;6.90;;;;;;;15.47;100.00;101774.22;4988724;28;20038;-63
2023/09/06 05:42:30;;;;;;;8.50;7.70;;;;;;;15.49;100.00;101776.03;4988034;28;20026;-63
2023/09/06 05:44:56;;;;;;;7.45;6.78;;;;;;;15.53;100.00;101777.00;4988572;28;20128;-64
2023/09/06 05:47:21;;;;;;;8.43;7.28;;;;;;;15.57;100.00;101777.94;4988926;28;20026;-64
2023/09/06 05:49:48;;;;;;;8.23;7.25;;;;;;;15.64;100.00;101787.72;4988465;28;20154;-64
2023/09/06 05:52:13;;;;;;;7.40;6.70;;;;;;;15.70;100.00;101784.38;4970260;28;20030;-63
2023/09/06 05:54:38;;;;;;;7.35;6.63;;;;;;;15.77;100.00;101782.81;4987856;28;20034;-62
2023/09/06 05:57:05;;;;;;;11.30;7.43;;;;;;;15.84;100.00;101785.63;4988371;28;20417;-62
2023/09/06 05:59:30;;;;;;;7.95;6.85;;;;;;;15.94;100.00;101785.84;4988319;28;20065;-63
2023/09/06 06:01:55;;;;;;;7.80;7.10;;;;;;;16.00;100.00;101783.41;4988157;28;20015;-64
2023/09/06 06:04:21;;;;;;;8.20;7.50;;;;;;;16.08;100.00;101791.47;4986569;28;20110;-64
2023/09/06 06:06:47;;;;;;;7.65;5.95;;;;;;;16.17;100.00;101788.19;4988223;28;20466;-64
2023/09/06 06:09:15;;;;;;;8.13;7.00;;;;;;;16.26;100.00;101787.50;4987769;28;20061;-63
2023/09/06 06:11:40;;;;;;;7.38;6.55;;;;;;;16.38;100.00;101786.91;4987792;28;20030;-64
2023/09/06 06:14:06;;;;;;;7.13;6.43;;;;;;;16.49;100.00;101787.16;4988506;28;20036;-65
2023/09/06 06:16:32;;;;;;;6.50;5.88;;;;;;;16.59;100.00;101789.09;4987830;28;20026;-65
2023/09/06 06:18:57;;;;;;;7.63;6.18;;;;;;;16.70;100.00;101797.19;4988370;28;20062;-64
2023/09/06 06:21:28;;;;;;;9.23;6.20;;;;;;;16.82;100.00;101800.94;4988452;28;20033;-64
2023/09/06 06:23:54;;;;;;;;;;;;;;;16.92;100.00;101798.56;4988126;28;20034;-64
2023/09/06 06:26:20;;;;;;;6.10;5.50;;;;;;;17.02;100.00;101794.38;4985891;28;19918;-63
2023/09/06 06:28:46;;;;;;;6.35;5.78;;;;;;;17.11;100.00;101793.72;4986689;28;20058;-64
2023/09/06 06:31:12;;;;;;;6.97;5.90;;;;;;;17.21;100.00;101800.03;4978754;28;20035;-65
2023/09/06 06:33:38;;;;;;;6.63;5.93;;;;;;;17.29;100.00;101805.38;4985022;28;20026;-64
2023/09/06 06:36:04;;;;;;;6.53;5.90;;;;;;;17.39;100.00;101804.75;4989068;28;20030;-64
2023/09/06 06:38:30;;;;;;;7.45;5.60;;;;;;;17.48;100.00;101809.25;4988807;28;20042;-63
2023/09/06 06:40:55;;;;;;;6.20;5.60;;;;;;;17.59;100.00;101812.06;4990614;28;20038;-65
2023/09/06 06:43:21;;;;;;;5.65;5.18;;;;;;;17.72;100.00;101815.78;4990685;28;20115;-65
2023/09/06 06:45:55;;;;;;;7.53;5.30;;;;;;;17.83;100.00;101812.47;4991162;28;20466;-64
2023/09/06 06:48:21;;;;;;;7.25;5.38;;;;;;;17.98;100.00;101822.34;4990907;28;20030;-65
2023/09/06 06:50:46;;;;;;;5.93;5.40;;;;;;;18.13;100.00;101824.34;4991663;28;20433;-65
2023/09/06 06:53:12;;;;;;;8.85;5.45;;;;;;;18.34;100.00;101829.06;4991009;28;20037;-63
2023/09/06 06:55:38;;;;;;;6.90;5.55;;;;;;;18.64;100.00;101826.84;4990979;28;20110;-62
2023/09/06 06:58:07;;;;;;;8.00;5.28;;;;;;;18.96;100.00;101825.50;4991746;28;20026;-65
2023/09/06 07:00:34;;;;;;;6.82;5.30;;;;;;;19.30;100.00;101822.47;4991476;28;20022;-65
2023/09/06 07:02:59;;;;;;;5.85;5.10;;;;;;;19.56;100.00;101820.09;4991250;28;20281;-65
2023/09/06 07:05:24;;;;;;;5.80;4.47;;;;;;;19.80;100.00;101825.59;4990883;28;20057;-65
2023/09/06 07:07:49;;;;;;;6.70;5.22;;;;;;;20.02;100.00;101817.88;4991426;28;20015;-65
2023/09/06 07:10:15;;;;;;;4.85;4.40;;;;;;;20.29;100.00;101826.88;4991189;28;20063;-65
2023/09/06 07:12:41;;;;;;;7.18;4.95;;;;;;;20.62;100.00;101829.69;4991219;28;20073;-66
2023/09/06 07:15:06;;;;;;;4.90;4.35;;;;;;;20.86;100.00;101825.44;4990598;28;20057;-65
2023/09/06 07:17:32;;;;;;;5.50;4.47;;;;;;;21.17;100.00;101825.59;4990828;28;20037;-65
2023/09/06 07:19:58;;;;;;;7.32;4.55;;;;;;;21.32;100.00;101827.38;4990574;28;20026;-65
2023/09/06 07:22:24;;;;;;;5.38;3.85;;;;;;;21.65;100.00;101830.09;4990971;28;20156;-66
2023/09/06 07:24:49;;;;;;;5.32;3.70;;;;;;;22.16;100.00;101831.00;4990558;28;20113;-66
2023/09/06 07:27:14;;;;;;;5.30;4.38;;;;;;;22.54;100.00;101826.53;4990473;28;20512;-65
2023/09/06 07:29:39;;;;;;;5.70;3.97;;;;;;;22.95;100.00;101823.78;4990999;28;20048;-65
2023/09/06 07:32:05;;;;;;;4.95;3.53;;;;;;;23.36;100.00;101825.31;4977574;28;20084;-65
2023/09/06 07:34:30;;;;;;;6.10;3.95;;;;;;;23.57;98.43;101831.38;4990959;28;20403;-66
2023/09/06 07:36:56;;;;;;;4.30;3.80;;;;;;;24.12;98.01;101830.94;4989998;28;20027;-66
2023/09/06 07:39:21;;;;;;;4.47;3.70;;;;;;;24.63;92.92;101837.50;4991276;28;20122;-65
2023/09/06 07:41:47;;;;;;;4.80;3.70;;;;;;;25.03;92.35;101832.63;4989947;28;20023;-66
2023/09/06 07:44:12;;;;;;;4.03;3.70;;;;;;;25.34;89.13;101842.81;4991028;28;20038;-66
2023/09/06 07:46:39;;;;;;;4.50;3.47;;;;;;;25.55;86.71;101846.03;4972992;28;20027;-66
2023/09/06 07:49:04;;;;;;;4.43;2.90;;;;;;;25.79;88.23;101841.28;4990386;28;20114;-66
2023/09/06 07:51:30;;;;;;;3.72;3.42;;;;;;;26.11;86.16;101845.16;4989985;28;20109;-66
2023/09/06 07:53:55;;;;;;;4.57;3.88;;;;;;;26.47;82.40;101846.31;4990041;28;20030;-66
2023/09/06 07:56:21;;;;;;;4.57;3.55;;;;;;;26.71;77.23;101846.72;4990294;28;20105;-66
2023/09/06 07:58:46;;;;;;;4.70;3.30;;;;;;;26.80;77.40;101849.22;4990685;28;20021;-65
2023/09/06 08:01:11;;;;;;;3.35;3.05;;;;;;;26.88;77.24;101846.38;4982288;28;20381;-66
2023/09/06 08:03:37;;;;;;;4.13;3.00;;;;;;;27.07;78.69;101846.03;4990646;28;20023;-66
2023/09/06 08:06:04;;;;;;;4.45;3.10;;;;;;;27.32;75.63;101851.66;4990191;28;20030;-66
2023/09/06 08:08:29;;;;;;;3.80;2.88;;;;;;;27.45;77.38;101854.88;4990261;28;20449;-66
2023/09/06 08:10:55;;;;;;;4.82;3.75;;;;;;;27.65;76.42;101852.69;4990127;28;20032;-66
2023/09/06 08:13:20;;;;;;;3.95;3.55;;;;;;;27.78;74.56;101846.16;4989902;28;20021;-66
2023/09/06 08:15:45;;;;;;;4.05;3.70;;;;;;;28.03;75.86;101849.97;4971877;28;20026;-66
2023/09/06 08:18:11;;;;;;;4.53;4.07;;;;;;;28.16;71.43;101859.41;4989811;28;20033;-66
2023/09/06 08:20:36;;;;;;;3.95;3.55;;;;;;;28.21;69.94;101861.94;4990179;28;20036;-66
2023/09/06 08:23:01;;;;;;;3.95;3.30;;;;;;;28.16;73.06;101859.41;4989304;28;20030;-66
2023/09/06 08:25:27;;;;;;;4.38;3.80;;;;;;;28.42;69.47;101864.97;4989843;28;20041;-66
2023/09/06 08:27:52;;;;;;;4.65;3.90;;;;;;;28.28;67.50;101857.31;4988889;28;20057;-66
2023/09/06 08:30:19;;;;;;;6.22;3.70;;;;;;;28.61;65.02;101859.13;4988717;28;20052;-64
2023/09/06 08:32:48;;;;;;;5.43;3.28;;;;;;;28.72;67.04;101862.34;4978420;28;20407;-66
2023/09/06 08:35:13;;;;;;;4.13;3.70;;;;;;;28.75;67.19;101862.25;4989487;28;20374;-66
2023/09/06 08:37:39;;;;;;;5.10;4.60;;;;;;;28.83;67.54;101859.38;4989229;28;20031;-64
2023/09/06 08:40:07;;;;;;;5.20;3.78;;;;;;;28.91;66.67;101861.78;4989444;28;20509;-66
2023/09/06 08:42:34;;;;;;;4.68;3.45;;;;;;;28.93;65.36;101859.97;4989341;28;20026;-66
2023/09/06 08:45:01;;;;;;;3.58;3.20;;;;;;;28.95;68.57;101866.13;4969306;28;20471;-65
2023/09/06 08:47:27;;;;;;;4.00;3.63;;;;;;;29.02;63.05;101864.19;4979511;28;20273;-66
2023/09/06 08:49:53;;;;;;;3.92;3.53;;;;;;;29.20;62.51;101854.75;4989366;28;20347;-66
2023/09/06 08:52:19;;;;;;;3.17;2.97;;;;;;;29.13;63.49;101861.19;4989122;28;20038;-64
2023/09/06 08:54:46;;;;;;;4.05;3.53;;;;;;;28.95;64.68;101863.47;4988274;28;20038;-66
2023/09/06 08:57:13;;;;;;;5.22;3.40;;;;;;;29.05;65.23;101860.56;4989229;28;20128;-66
2023/09/06 08:59:39;;;;;;;3.92;3.17;;;;;;;28.98;64.43;101862.50;4989191;28;20289;-65
2023/09/06 09:02:05;;;;;;;3.40;2.80;;;;;;;28.72;64.55;101856.16;4989148;28;20407;-66
2023/09/06 09:04:31;;;;;;;4.18;3.65;;;;;;;28.76;62.25;101860.47;4989344;28;20033;-66
2023/09/06 09:06:57;;;;;;;3.35;3.15;;;;;;;28.83;62.72;101856.72;4989443;28;20804;-66
2023/09/06 09:09:24;;;;;;;3.80;3.30;;;;;;;28.86;64.46;101856.63;4989077;28;20025;-66
2023/09/06 09:11:51;;;;;;;5.03;2.67;;;;;;;28.88;65.95;101867.22;4989353;28;20069;-66
2023/09/06 09:14:24;;;;;;;3.33;2.95;;;;;;;28.88;65.40;101861.91;4989708;28;20418;-66
2023/09/06 09:16:58;;;;;;;4.20;2.90;;;;;;;28.92;63.89;101860.91;4987675;28;20053;-66
2023/09/06 09:19:24;;;;;;;4.93;3.22;;;;;;;28.69;66.46;101859.78;4987129;28;20037;-65
2023/09/06 09:21:50;;;;;;;4.80;2.95;;;;;;;28.72;68.41;101862.34;4983547;28;20559;-65
2023/09/06 09:24:25;;;;;;;3.45;2.80;;;;;;;28.72;66.72;101859.69;4987562;28;20137;-66
2023/09/06 09:26:50;;;;;;;5.50;3.58;;;;;;;28.55;66.85;101851.31;4988309;28;20054;-66
2023/09/06 09:29:15;;;;;;;7.35;3.80;;;;;;;28.52;67.69;101855.81;4989052;28;20033;-66
2023/09/06 09:31:41;;;;;;;4.22;2.92;;;;;;;28.51;70.46;101856.72;4976122;28;20531;-66
2023/09/06 09:34:06;;;;;;;4.25;2.97;;;;;;;28.52;68.93;101860.25;4987981;28;20033;-66
2023/09/06 09:36:34;;;;;;;3.83;2.97;;;;;;;28.58;70.01;101857.44;4988556;28;20023;-66
2023/09/06 09:39:05;;;;;;;4.00;3.38;;;;;;;28.52;69.87;101862.91;4988193;28;20246;-65
2023/09/06 09:41:31;;;;;;;6.15;3.30;;;;;;;28.64;68.82;101859.03;4988620;28;20477;-66
2023/09/06 09:44:13;;;;;;;5.20;2.88;;;;;;;28.68;66.33;101857.13;4988632;28;20027;-66
2023/09/06 09:46:39;;;;;;;4.70;2.85;;;;;;;28.73;67.77;101852.56;4988644;28;20026;-67
2023/09/06 09:49:07;;;;;;;3.72;2.78;;;;;;;28.67;69.30;101852.75;4988130;28;20077;-66
2023/09/06 09:51:34;;;;;;;4.68;3.58;;;;;;;28.60;66.23;101852.94;4988164;28;20370;-66
2023/09/06 09:54:00;;;;;;;3.78;2.50;;;;;;;28.59;66.86;101852.94;4988509;28;20550;-64
2023/09/06 09:56:28;;;;;;;4.40;3.17;;;;;;;28.62;65.47;101844.88;4987892;28;20025;-66
2023/09/06 09:58:54;;;;;;;7.75;2.85;;;;;;;28.62;66.28;101840.41;4988578;28;20117;-66
2023/09/06 10:01:20;;;;;;;3.95;2.60;;;;;;;28.66;65.06;101851.84;4987980;28;20081;-65
2023/09/06 10:03:49;;;;;;;4.38;3.33;;;;;;;28.62;65.26;101855.56;4988618;28;20117;-66
2023/09/06 10:06:16;;;;;;;4.65;3.10;;;;;;;28.48;66.18;101847.91;4988251;28;20058;-66
2023/09/06 10:08:44;;;;;;;5.07;3.50;;;;;;;28.48;66.49;101843.47;4988638;28;20038;-66
2023/09/06 10:11:12;;;;;;;3.75;2.58;;;;;;;28.50;64.36;101841.66;4988209;28;20419;-66
2023/09/06 10:13:38;;;;;;;7.47;2.90;;;;;;;28.55;64.48;101843.31;4988179;28;20115;-66
2023/09/06 10:16:06;;;;;;;3.28;2.38;;;;;;;28.50;64.45;101846.97;4988271;28;20038;-66
2023/09/06 10:18:31;;;;;;;2.83;2.33;;;;;;;28.53;63.04;101840.69;4988517;28;20034;-66
2023/09/06 10:20:58;;;;;;;4.38;2.53;;;;;;;28.53;63.21;101840.69;4987583;28;20029;-66
2023/09/06 10:23:23;;;;;;;4.90;2.78;;;;;;;28.50;62.41;101838.09;4988444;28;20041;-67
2023/09/06 10:25:50;;;;;;;5.45;2.25;;;;;;;28.53;62.69;101836.22;4988176;28;20018;-67
2023/09/06 10:28:19;;;;;;;4.05;2.40;;;;;;;28.61;61.75;101833.34;4987797;28;20043;-66
2023/09/06 10:30:54;;;;;;;4.10;2.35;;;;;;;28.68;60.78;101831.38;4987462;28;20038;-66
2023/09/06 10:33:41;;;;;;;4.57;2.50;;;;;;;28.73;61.03;101841.91;4988450;28;20034;-66
2023/09/06 10:36:12;;;;;;;3.88;3.22;;;;;;;28.71;60.89;101833.94;4977561;28;20038;-66
2023/09/06 10:38:53;;;;;;;3.95;2.50;;;;;;;28.73;59.10;101834.78;4987643;28;20030;-67
2023/09/06 10:41:20;;;;;;;5.20;2.92;;;;;;;28.76;59.11;101842.69;4988193;28;20122;-67
2023/09/06 10:43:48;;;;;;;3.95;2.72;;;;;;;28.74;60.39;101828.53;4987188;28;20054;-66
2023/09/06 10:46:26;;;;;;;4.28;2.42;;;;;;;28.74;62.11;101832.97;4988058;28;20049;-66
2023/09/06 10:49:16;;;;;;;3.35;2.03;;;;;;;28.76;58.51;101833.81;4988202;28;20554;-66
2023/09/06 10:51:54;;;;;;;4.05;2.90;;;;;;;28.80;56.75;101823.94;4988162;28;20042;-66
2023/09/06 10:54:22;;;;;;;2.80;2.38;;;;;;;28.82;56.67;101832.78;4988083;28;20045;-66
2023/09/06 10:56:57;;;;;;;3.03;2.40;;;;;;;28.80;58.50;101830.13;4987472;28;20101;-67
2023/09/06 10:59:22;;;;;;;2.20;2.00;;;;;;;28.83;57.24;101826.50;4986534;28;20034;-66
2023/09/06 11:02:15;;;;;;;3.55;2.45;;;;;;;28.89;60.20;101824.53;4986873;28;20436;-67
2023/09/06 11:04:42;;;;;;;2.47;2.28;;;;;;;28.94;58.79;101829.72;4984876;28;20026;-66
2023/09/06 11:07:11;;;;;;;3.08;2.42;;;;;;;28.92;57.56;101823.56;4987309;28;20085;-66
2023/09/06 11:09:50;;;;;;;5.10;2.58;;;;;;;28.99;59.42;101817.16;4984925;28;20022;-64
2023/09/06 11:12:16;;;;;;;3.17;2.40;;;;;;;29.06;58.02;101815.16;4981661;28;20034;-65
2023/09/06 11:14:46;;;;;;;4.10;2.88;;;;;;;29.09;57.76;101816.88;4987274;28;20010;-67
2023/09/06 11:17:22;;;;;;;4.05;2.60;;;;;;;29.13;57.46;101818.50;4980177;28;20030;-67
2023/09/06 11:19:48;;;;;;;2.78;2.30;;;;;;;29.21;57.08;101816.50;4991742;28;20027;-67
2023/09/06 11:22:13;;;;;;;3.10;2.20;;;;;;;29.27;54.33;101812.72;4990537;28;20041;-66